sensor_id;sensor_type;location;lat;lon;timestamp;temperature;humidity
18880;DHT22;9572;52.378;13.404;2023-02-01T00:01:54;5.00;99.90
18880;DHT22;9572;52.378;13.404;2023-02-01T00:04:21;4.90;99.90
18880;DHT22;9572;52.378;13.404;2023-02-01T00:06:48;4.90;99.90
18880;DHT22;9572;52.378;13.404;2023-02-01T00:09:15;5.00;99.90
18880;DHT22;9572;52.378;13.404;2023-02-01T00:11:43;5.00;99.90
18880;DHT22;9572;52.378;13.404;2023-02-01T00:14:10;5.00;99.90
18880;DHT22;9572;52.378;13.404;2023-02-01T00:16:37;5.00;99.90
18880;DHT22;9572;52.378;13.404;2023-02-01T00:19:07;5.10;99.90
18880;DHT22;9572;52.378;13.404;2023-02-01T00:21:34;5.00;99.90
18880;DHT22;9572;52.378;13.404;2023-02-01T00:24:01;4.90;99.90
18880;DHT22;9572;52.378;13.404;2023-02-01T00:26:32;4.90;99.90
18880;DHT22;9572;52.378;13.404;2023-02-01T00:29:01;4.90;99.90
18880;DHT22;9572;52.378;13.404;2023-02-01T00:31:29;4.90;99.90
18880;DHT22;9572;52.378;13.404;2023-02-01T00:33:56;4.90;99.90
18880;DHT22;9572;52.378;13.404;2023-02-01T00:36:23;4.90;99.90
18880;DHT22;9572;52.378;13.404;2023-02-01T00:38:50;4.90;99.90
18880;DHT22;9572;52.378;13.404;2023-02-01T00:41:18;5.00;99.90
18880;DHT22;9572;52.378;13.404;2023-02-01T00:43:47;5.00;99.90
18880;DHT22;9572;52.378;13.404;2023-02-01T00:46:17;5.10;99.90
18880;DHT22;9572;52.378;13.404;2023-02-01T00:48:44;5.10;99.90
18880;DHT22;9572;52.378;13.404;2023-02-01T00:51:13;5.00;99.90
18880;DHT22;9572;52.378;13.404;2023-02-01T00:53:41;5.00;99.90
18880;DHT22;9572;52.378;13.404;2023-02-01T00:56:08;4.90;99.90
18880;DHT22;9572;52.378;13.404;2023-02-01T00:58:35;4.90;99.90
18880;DHT22;9572;52.378;13.404;2023-02-01T01:01:04;4.80;99.90
18880;DHT22;9572;52.378;13.404;2023-02-01T01:03:34;4.80;99.90
18880;DHT22;9572;52.378;13.404;2023-02-01T01:06:04;4.80;99.90
18880;DHT22;9572;52.378;13.404;2023-02-01T01:08:32;4.70;99.90
18880;DHT22;9572;52.378;13.404;2023-02-01T01:10:59;4.70;99.90
18880;DHT22;9572;52.378;13.404;2023-02-01T01:13:30;4.70;99.90
18880;DHT22;9572;52.378;13.404;2023-02-01T01:15:59;4.60;99.90
18880;DHT22;9572;52.378;13.404;2023-02-01T01:18:28;4.60;99.90
18880;DHT22;9572;52.378;13.404;2023-02-01T01:20:56;4.60;99.90
18880;DHT22;9572;52.378;13.404;2023-02-01T01:23:24;4.60;99.90
18880;DHT22;9572;52.378;13.404;2023-02-01T01:25:51;4.50;99.90
18880;DHT22;9572;52.378;13.404;2023-02-01T01:28:18;4.50;99.90
18880;DHT22;9572;52.378;13.404;2023-02-01T01:30:44;4.60;99.90
18880;DHT22;9572;52.378;13.404;2023-02-01T01:33:11;4.60;99.90
18880;DHT22;9572;52.378;13.404;2023-02-01T01:35:38;4.60;99.90
18880;DHT22;9572;52.378;13.404;2023-02-01T01:38:06;4.60;99.90
18880;DHT22;9572;52.378;13.404;2023-02-01T01:40:34;4.60;99.90
18880;DHT22;9572;52.378;13.404;2023-02-01T01:43:01;4.70;99.90
18880;DHT22;9572;52.378;13.404;2023-02-01T01:45:29;4.70;99.90
18880;DHT22;9572;52.378;13.404;2023-02-01T01:47:59;4.70;99.90
18880;DHT22;9572;52.378;13.404;2023-02-01T01:50:29;4.80;99.90
18880;DHT22;9572;52.378;13.404;2023-02-01T01:52:59;4.80;99.90
18880;DHT22;9572;52.378;13.404;2023-02-01T01:55:32;4.90;99.90
18880;DHT22;9572;52.378;13.404;2023-02-01T01:58:05;4.90;99.90
18880;DHT22;9572;52.378;13.404;2023-02-01T02:00:33;4.90;99.90
18880;DHT22;9572;52.378;13.404;2023-02-01T02:03:03;4.80;99.90
18880;DHT22;9572;52.378;13.404;2023-02-01T02:05:33;4.80;99.90
18880;DHT22;9572;52.378;13.404;2023-02-01T02:08:00;4.80;99.90
18880;DHT22;9572;52.378;13.404;2023-02-01T02:10:29;4.90;99.90
18880;DHT22;9572;52.378;13.404;2023-02-01T02:13:10;4.80;99.90
18880;DHT22;9572;52.378;13.404;2023-02-01T02:15:43;4.80;99.90
18880;DHT22;9572;52.378;13.404;2023-02-01T02:18:17;4.90;99.90
18880;DHT22;9572;52.378;13.404;2023-02-01T02:20:52;4.90;99.90
18880;DHT22;9572;52.378;13.404;2023-02-01T02:35:23;4.80;99.90
18880;DHT22;9572;52.378;13.404;2023-02-01T02:38:00;4.80;99.90
18880;DHT22;9572;52.378;13.404;2023-02-01T02:40:33;4.80;99.90
18880;DHT22;9572;52.378;13.404;2023-02-01T02:43:08;4.80;99.90
18880;DHT22;9572;52.378;13.404;2023-02-01T02:45:57;4.80;99.90
18880;DHT22;9572;52.378;13.404;2023-02-01T02:49:01;4.80;99.90
18880;DHT22;9572;52.378;13.404;2023-02-01T02:51:34;4.80;99.90
18880;DHT22;9572;52.378;13.404;2023-02-01T02:54:23;4.80;99.90
18880;DHT22;9572;52.378;13.404;2023-02-01T02:57:11;4.80;99.90
18880;DHT22;9572;52.378;13.404;2023-02-01T02:59:57;4.80;99.90
18880;DHT22;9572;52.378;13.404;2023-02-01T03:02:45;4.80;99.90
18880;DHT22;9572;52.378;13.404;2023-02-01T03:05:33;4.90;99.90
18880;DHT22;9572;52.378;13.404;2023-02-01T03:08:10;4.80;99.90
18880;DHT22;9572;52.378;13.404;2023-02-01T03:11:02;4.90;99.90
18880;DHT22;9572;52.378;13.404;2023-02-01T03:13:36;4.90;99.90
18880;DHT22;9572;52.378;13.404;2023-02-01T03:16:08;4.90;99.90
18880;DHT22;9572;52.378;13.404;2023-02-01T03:18:42;4.90;99.90
18880;DHT22;9572;52.378;13.404;2023-02-01T03:21:15;4.90;99.90
18880;DHT22;9572;52.378;13.404;2023-02-01T03:23:45;5.00;99.90
18880;DHT22;9572;52.378;13.404;2023-02-01T03:26:16;4.90;99.90
18880;DHT22;9572;52.378;13.404;2023-02-01T03:28:54;4.90;99.90
18880;DHT22;9572;52.378;13.404;2023-02-01T03:31:22;4.90;99.90
18880;DHT22;9572;52.378;13.404;2023-02-01T03:33:50;5.00;99.90
18880;DHT22;9572;52.378;13.404;2023-02-01T03:36:24;4.90;99.90
18880;DHT22;9572;52.378;13.404;2023-02-01T03:39:00;5.00;99.90
18880;DHT22;9572;52.378;13.404;2023-02-01T03:41:35;5.00;99.90
18880;DHT22;9572;52.378;13.404;2023-02-01T03:44:08;5.00;99.90
18880;DHT22;9572;52.378;13.404;2023-02-01T03:46:41;5.00;99.90
18880;DHT22;9572;52.378;13.404;2023-02-01T03:49:14;5.00;99.90
18880;DHT22;9572;52.378;13.404;2023-02-01T03:51:42;5.00;99.90
18880;DHT22;9572;52.378;13.404;2023-02-01T03:54:13;5.10;99.90
18880;DHT22;9572;52.378;13.404;2023-02-01T03:56:44;5.00;99.90
18880;DHT22;9572;52.378;13.404;2023-02-01T03:59:12;5.00;99.90
18880;DHT22;9572;52.378;13.404;2023-02-01T04:01:40;5.00;99.90
18880;DHT22;9572;52.378;13.404;2023-02-01T04:04:07;5.00;99.90
18880;DHT22;9572;52.378;13.404;2023-02-01T04:06:34;5.00;99.90
18880;DHT22;9572;52.378;13.404;2023-02-01T04:09:02;5.00;99.90
18880;DHT22;9572;52.378;13.404;2023-02-01T04:11:30;5.10;99.90
18880;DHT22;9572;52.378;13.404;2023-02-01T04:13:57;5.10;99.90
18880;DHT22;9572;52.378;13.404;2023-02-01T04:16:24;5.10;99.90
18880;DHT22;9572;52.378;13.404;2023-02-01T04:18:50;5.10;99.90
18880;DHT22;9572;52.378;13.404;2023-02-01T04:21:17;5.10;99.90
18880;DHT22;9572;52.378;13.404;2023-02-01T04:23:44;5.20;99.90
18880;DHT22;9572;52.378;13.404;2023-02-01T04:26:11;5.20;99.90
18880;DHT22;9572;52.378;13.404;2023-02-01T04:28:39;5.20;99.90
18880;DHT22;9572;52.378;13.404;2023-02-01T04:31:06;5.20;99.90
18880;DHT22;9572;52.378;13.404;2023-02-01T04:33:33;5.20;99.90
18880;DHT22;9572;52.378;13.404;2023-02-01T04:36:00;5.30;99.90
18880;DHT22;9572;52.378;13.404;2023-02-01T04:38:27;5.30;99.90
18880;DHT22;9572;52.378;13.404;2023-02-01T04:40:54;5.30;99.90
18880;DHT22;9572;52.378;13.404;2023-02-01T04:43:21;5.30;99.90
18880;DHT22;9572;52.378;13.404;2023-02-01T04:45:50;5.40;99.90
18880;DHT22;9572;52.378;13.404;2023-02-01T04:48:18;5.30;99.90
18880;DHT22;9572;52.378;13.404;2023-02-01T04:50:46;5.40;99.90
18880;DHT22;9572;52.378;13.404;2023-02-01T04:53:13;5.50;99.90
18880;DHT22;9572;52.378;13.404;2023-02-01T04:55:41;5.40;99.90
18880;DHT22;9572;52.378;13.404;2023-02-01T04:58:08;5.40;99.90
18880;DHT22;9572;52.378;13.404;2023-02-01T05:00:36;5.50;99.90
18880;DHT22;9572;52.378;13.404;2023-02-01T05:03:05;5.50;99.90
18880;DHT22;9572;52.378;13.404;2023-02-01T05:05:32;5.50;99.90
18880;DHT22;9572;52.378;13.404;2023-02-01T05:07:59;5.50;99.90
18880;DHT22;9572;52.378;13.404;2023-02-01T05:10:25;5.50;99.90
18880;DHT22;9572;52.378;13.404;2023-02-01T05:12:52;5.50;99.90
18880;DHT22;9572;52.378;13.404;2023-02-01T05:15:37;5.50;99.90
18880;DHT22;9572;52.378;13.404;2023-02-01T05:18:05;5.60;99.90
18880;DHT22;9572;52.378;13.404;2023-02-01T05:20:32;5.50;99.90
18880;DHT22;9572;52.378;13.404;2023-02-01T05:22:59;5.50;99.90
18880;DHT22;9572;52.378;13.404;2023-02-01T05:25:26;5.60;99.90
18880;DHT22;9572;52.378;13.404;2023-02-01T05:27:53;5.60;99.90
18880;DHT22;9572;52.378;13.404;2023-02-01T05:30:20;5.50;99.90
18880;DHT22;9572;52.378;13.404;2023-02-01T05:32:49;5.60;99.90
18880;DHT22;9572;52.378;13.404;2023-02-01T05:35:18;5.50;99.90
18880;DHT22;9572;52.378;13.404;2023-02-01T05:37:45;5.50;99.90
18880;DHT22;9572;52.378;13.404;2023-02-01T05:40:12;5.50;99.90
18880;DHT22;9572;52.378;13.404;2023-02-01T05:42:39;5.50;99.90
18880;DHT22;9572;52.378;13.404;2023-02-01T05:45:07;5.50;99.90
18880;DHT22;9572;52.378;13.404;2023-02-01T05:47:34;5.50;99.90
18880;DHT22;9572;52.378;13.404;2023-02-01T05:50:01;5.50;99.90
18880;DHT22;9572;52.378;13.404;2023-02-01T05:52:29;5.50;99.90
18880;DHT22;9572;52.378;13.404;2023-02-01T05:54:56;5.50;99.90
18880;DHT22;9572;52.378;13.404;2023-02-01T05:57:23;5.50;99.90
18880;DHT22;9572;52.378;13.404;2023-02-01T05:59:49;5.50;99.90
18880;DHT22;9572;52.378;13.404;2023-02-01T06:02:16;5.50;99.90
18880;DHT22;9572;52.378;13.404;2023-02-01T06:04:43;5.50;99.90
18880;DHT22;9572;52.378;13.404;2023-02-01T06:07:10;5.50;99.90
18880;DHT22;9572;52.378;13.404;2023-02-01T06:09:38;5.50;99.90
18880;DHT22;9572;52.378;13.404;2023-02-01T06:12:06;5.50;99.90
18880;DHT22;9572;52.378;13.404;2023-02-01T06:14:32;5.40;99.90
18880;DHT22;9572;52.378;13.404;2023-02-01T06:17:00;5.50;99.90
18880;DHT22;9572;52.378;13.404;2023-02-01T06:19:26;5.50;99.90
18880;DHT22;9572;52.378;13.404;2023-02-01T06:21:53;5.40;99.90
18880;DHT22;9572;52.378;13.404;2023-02-01T06:24:20;5.50;99.90
18880;DHT22;9572;52.378;13.404;2023-02-01T06:26:48;5.40;99.90
18880;DHT22;9572;52.378;13.404;2023-02-01T06:29:15;5.40;99.90
18880;DHT22;9572;52.378;13.404;2023-02-01T06:31:42;5.50;99.90
18880;DHT22;9572;52.378;13.404;2023-02-01T06:34:09;5.40;99.90
18880;DHT22;9572;52.378;13.404;2023-02-01T06:36:36;5.40;99.90
18880;DHT22;9572;52.378;13.404;2023-02-01T06:39:03;5.40;99.90
18880;DHT22;9572;52.378;13.404;2023-02-01T06:41:30;5.30;99.90
18880;DHT22;9572;52.378;13.404;2023-02-01T06:43:58;5.40;99.90
18880;DHT22;9572;52.378;13.404;2023-02-01T06:46:25;5.40;99.90
18880;DHT22;9572;52.378;13.404;2023-02-01T06:48:52;5.40;99.90
18880;DHT22;9572;52.378;13.404;2023-02-01T06:51:21;5.40;99.90
18880;DHT22;9572;52.378;13.404;2023-02-01T06:53:48;5.40;99.90
18880;DHT22;9572;52.378;13.404;2023-02-01T06:56:15;5.40;99.90
18880;DHT22;9572;52.378;13.404;2023-02-01T06:58:42;5.40;99.90
18880;DHT22;9572;52.378;13.404;2023-02-01T07:01:11;5.40;99.90
18880;DHT22;9572;52.378;13.404;2023-02-01T07:03:38;5.40;99.90
18880;DHT22;9572;52.378;13.404;2023-02-01T07:06:05;5.40;99.90
18880;DHT22;9572;52.378;13.404;2023-02-01T07:08:34;5.40;99.90
18880;DHT22;9572;52.378;13.404;2023-02-01T07:11:02;5.40;99.90
18880;DHT22;9572;52.378;13.404;2023-02-01T07:13:29;5.50;99.90
18880;DHT22;9572;52.378;13.404;2023-02-01T07:15:58;5.50;99.90
18880;DHT22;9572;52.378;13.404;2023-02-01T07:18:27;5.40;99.90
18880;DHT22;9572;52.378;13.404;2023-02-01T07:20:55;5.50;99.90
18880;DHT22;9572;52.378;13.404;2023-02-01T07:23:22;5.50;99.90
18880;DHT22;9572;52.378;13.404;2023-02-01T07:25:53;5.50;99.90
18880;DHT22;9572;52.378;13.404;2023-02-01T07:28:20;5.40;99.90
18880;DHT22;9572;52.378;13.404;2023-02-01T07:30:47;5.50;99.90
18880;DHT22;9572;52.378;13.404;2023-02-01T07:33:17;5.50;99.90
18880;DHT22;9572;52.378;13.404;2023-02-01T07:35:46;5.50;99.90
18880;DHT22;9572;52.378;13.404;2023-02-01T07:38:13;5.50;99.90
18880;DHT22;9572;52.378;13.404;2023-02-01T07:40:40;5.50;99.90
18880;DHT22;9572;52.378;13.404;2023-02-01T07:43:07;5.50;99.90
18880;DHT22;9572;52.378;13.404;2023-02-01T07:45:35;5.50;99.90
18880;DHT22;9572;52.378;13.404;2023-02-01T07:48:03;5.40;99.90
18880;DHT22;9572;52.378;13.404;2023-02-01T07:50:30;5.30;99.90
18880;DHT22;9572;52.378;13.404;2023-02-01T07:53:00;5.30;99.90
18880;DHT22;9572;52.378;13.404;2023-02-01T07:55:27;5.20;99.90
18880;DHT22;9572;52.378;13.404;2023-02-01T07:57:57;5.10;99.90
18880;DHT22;9572;52.378;13.404;2023-02-01T08:00:25;5.00;99.90
18880;DHT22;9572;52.378;13.404;2023-02-01T08:03:09;4.90;99.90
18880;DHT22;9572;52.378;13.404;2023-02-01T08:05:36;4.80;99.90
18880;DHT22;9572;52.378;13.404;2023-02-01T08:08:05;4.70;99.90
18880;DHT22;9572;52.378;13.404;2023-02-01T08:10:32;4.70;99.90
18880;DHT22;9572;52.378;13.404;2023-02-01T08:13:00;4.60;99.90
18880;DHT22;9572;52.378;13.404;2023-02-01T08:15:28;4.60;99.90
18880;DHT22;9572;52.378;13.404;2023-02-01T08:17:55;4.50;99.90
18880;DHT22;9572;52.378;13.404;2023-02-01T08:20:23;4.50;99.90
18880;DHT22;9572;52.378;13.404;2023-02-01T08:22:51;4.50;99.90
18880;DHT22;9572;52.378;13.404;2023-02-01T08:25:19;4.50;99.90
18880;DHT22;9572;52.378;13.404;2023-02-01T08:27:46;4.50;99.90
18880;DHT22;9572;52.378;13.404;2023-02-01T08:30:14;4.50;99.90
18880;DHT22;9572;52.378;13.404;2023-02-01T08:32:40;4.40;99.90
18880;DHT22;9572;52.378;13.404;2023-02-01T08:35:08;4.50;99.90
18880;DHT22;9572;52.378;13.404;2023-02-01T08:37:35;4.50;99.90
18880;DHT22;9572;52.378;13.404;2023-02-01T08:40:02;4.40;99.90
18880;DHT22;9572;52.378;13.404;2023-02-01T08:42:31;4.50;99.90
18880;DHT22;9572;52.378;13.404;2023-02-01T08:45:15;4.50;99.90
18880;DHT22;9572;52.378;13.404;2023-02-01T08:47:42;4.50;99.90
18880;DHT22;9572;52.378;13.404;2023-02-01T08:50:10;4.50;99.90
18880;DHT22;9572;52.378;13.404;2023-02-01T08:52:37;4.40;99.90
18880;DHT22;9572;52.378;13.404;2023-02-01T08:55:04;4.50;99.90
18880;DHT22;9572;52.378;13.404;2023-02-01T08:57:33;4.50;99.90
18880;DHT22;9572;52.378;13.404;2023-02-01T09:00:00;4.40;99.90
18880;DHT22;9572;52.378;13.404;2023-02-01T09:02:27;4.40;99.90
18880;DHT22;9572;52.378;13.404;2023-02-01T09:04:55;4.40;99.90
18880;DHT22;9572;52.378;13.404;2023-02-01T09:07:22;4.40;99.90
18880;DHT22;9572;52.378;13.404;2023-02-01T09:09:49;4.40;99.90
18880;DHT22;9572;52.378;13.404;2023-02-01T09:12:16;4.40;99.90
18880;DHT22;9572;52.378;13.404;2023-02-01T09:14:44;4.30;99.90
18880;DHT22;9572;52.378;13.404;2023-02-01T09:17:11;4.40;99.90
18880;DHT22;9572;52.378;13.404;2023-02-01T09:19:38;4.40;99.90
18880;DHT22;9572;52.378;13.404;2023-02-01T09:22:05;4.40;99.90
18880;DHT22;9572;52.378;13.404;2023-02-01T09:24:32;4.40;99.90
18880;DHT22;9572;52.378;13.404;2023-02-01T09:26:59;4.50;99.90
18880;DHT22;9572;52.378;13.404;2023-02-01T09:29:26;4.50;99.90
18880;DHT22;9572;52.378;13.404;2023-02-01T09:31:54;4.60;99.90
18880;DHT22;9572;52.378;13.404;2023-02-01T09:34:21;4.60;99.90
18880;DHT22;9572;52.378;13.404;2023-02-01T09:36:48;4.60;99.90
18880;DHT22;9572;52.378;13.404;2023-02-01T09:39:15;4.50;99.90
18880;DHT22;9572;52.378;13.404;2023-02-01T09:41:48;4.50;99.90
18880;DHT22;9572;52.378;13.404;2023-02-01T09:44:28;4.60;99.90
18880;DHT22;9572;52.378;13.404;2023-02-01T09:47:01;4.60;99.90
18880;DHT22;9572;52.378;13.404;2023-02-01T09:49:30;4.60;99.90
18880;DHT22;9572;52.378;13.404;2023-02-01T09:52:00;4.60;99.90
18880;DHT22;9572;52.378;13.404;2023-02-01T09:54:33;4.60;99.90
18880;DHT22;9572;52.378;13.404;2023-02-01T09:57:12;4.60;99.90
18880;DHT22;9572;52.378;13.404;2023-02-01T09:59:42;4.70;99.90
18880;DHT22;9572;52.378;13.404;2023-02-01T10:02:14;4.70;99.90
18880;DHT22;9572;52.378;13.404;2023-02-01T10:04:42;4.70;99.90
18880;DHT22;9572;52.378;13.404;2023-02-01T10:07:17;4.70;99.90
18880;DHT22;9572;52.378;13.404;2023-02-01T10:09:56;4.70;99.90
18880;DHT22;9572;52.378;13.404;2023-02-01T10:12:45;4.60;99.90
18880;DHT22;9572;52.378;13.404;2023-02-01T10:15:23;4.70;99.90
18880;DHT22;9572;52.378;13.404;2023-02-01T10:21:04;4.70;99.90
18880;DHT22;9572;52.378;13.404;2023-02-01T10:23:56;4.70;99.90
18880;DHT22;9572;52.378;13.404;2023-02-01T10:26:25;4.70;99.90
18880;DHT22;9572;52.378;13.404;2023-02-01T10:28:54;4.70;99.90
18880;DHT22;9572;52.378;13.404;2023-02-01T10:31:25;4.70;99.90
18880;DHT22;9572;52.378;13.404;2023-02-01T10:33:56;4.90;99.90
18880;DHT22;9572;52.378;13.404;2023-02-01T10:36:28;4.90;99.90
18880;DHT22;9572;52.378;13.404;2023-02-01T10:38:56;4.90;99.90
18880;DHT22;9572;52.378;13.404;2023-02-01T10:41:26;4.90;99.90
18880;DHT22;9572;52.378;13.404;2023-02-01T10:43:58;5.00;99.90
18880;DHT22;9572;52.378;13.404;2023-02-01T10:46:26;5.00;99.90
18880;DHT22;9572;52.378;13.404;2023-02-01T10:48:56;5.00;99.90
18880;DHT22;9572;52.378;13.404;2023-02-01T10:51:28;5.00;99.90
18880;DHT22;9572;52.378;13.404;2023-02-01T10:53:58;5.00;99.90
18880;DHT22;9572;52.378;13.404;2023-02-01T10:56:28;5.00;99.90
18880;DHT22;9572;52.378;13.404;2023-02-01T10:59:01;4.90;99.90
18880;DHT22;9572;52.378;13.404;2023-02-01T11:01:31;5.00;99.90
18880;DHT22;9572;52.378;13.404;2023-02-01T11:04:02;4.90;99.90
18880;DHT22;9572;52.378;13.404;2023-02-01T11:06:31;4.90;99.90
18880;DHT22;9572;52.378;13.404;2023-02-01T11:09:11;5.00;99.90
18880;DHT22;9572;52.378;13.404;2023-02-01T11:11:54;5.10;99.90
18880;DHT22;9572;52.378;13.404;2023-02-01T11:14:27;5.30;99.90
18880;DHT22;9572;52.378;13.404;2023-02-01T11:16:58;5.40;99.90
18880;DHT22;9572;52.378;13.404;2023-02-01T11:19:28;5.50;99.90
18880;DHT22;9572;52.378;13.404;2023-02-01T11:21:57;5.60;99.90
18880;DHT22;9572;52.378;13.404;2023-02-01T11:24:26;5.60;99.90
18880;DHT22;9572;52.378;13.404;2023-02-01T11:26:56;5.70;99.90
18880;DHT22;9572;52.378;13.404;2023-02-01T11:29:24;5.70;99.90
18880;DHT22;9572;52.378;13.404;2023-02-01T11:31:56;5.70;99.90
18880;DHT22;9572;52.378;13.404;2023-02-01T11:34:28;5.80;99.90
18880;DHT22;9572;52.378;13.404;2023-02-01T11:36:59;5.80;99.90
18880;DHT22;9572;52.378;13.404;2023-02-01T11:39:30;5.90;99.90
18880;DHT22;9572;52.378;13.404;2023-02-01T11:42:02;6.00;99.90
18880;DHT22;9572;52.378;13.404;2023-02-01T11:44:33;6.00;99.90
18880;DHT22;9572;52.378;13.404;2023-02-01T11:47:22;6.00;99.90
18880;DHT22;9572;52.378;13.404;2023-02-01T11:49:52;6.10;99.90
18880;DHT22;9572;52.378;13.404;2023-02-01T11:52:33;6.10;99.90
18880;DHT22;9572;52.378;13.404;2023-02-01T11:58:11;6.30;99.90
18880;DHT22;9572;52.378;13.404;2023-02-01T12:00:52;6.30;99.90
18880;DHT22;9572;52.378;13.404;2023-02-01T12:03:56;6.30;99.90
18880;DHT22;9572;52.378;13.404;2023-02-01T12:06:31;6.30;99.90
18880;DHT22;9572;52.378;13.404;2023-02-01T12:09:16;6.30;99.90
18880;DHT22;9572;52.378;13.404;2023-02-01T12:11:57;6.30;99.90
18880;DHT22;9572;52.378;13.404;2023-02-01T12:14:45;6.40;99.90
18880;DHT22;9572;52.378;13.404;2023-02-01T12:17:42;6.40;99.90
18880;DHT22;9572;52.378;13.404;2023-02-01T12:20:24;6.40;99.90
18880;DHT22;9572;52.378;13.404;2023-02-01T12:23:14;6.50;99.90
18880;DHT22;9572;52.378;13.404;2023-02-01T12:25:59;6.60;99.90
18880;DHT22;9572;52.378;13.404;2023-02-01T12:29:04;6.70;99.90
18880;DHT22;9572;52.378;13.404;2023-02-01T12:31:57;6.40;99.90
18880;DHT22;9572;52.378;13.404;2023-02-01T12:34:46;6.40;99.90
18880;DHT22;9572;52.378;13.404;2023-02-01T12:37:23;6.50;99.90
18880;DHT22;9572;52.378;13.404;2023-02-01T12:40:01;6.70;99.90
18880;DHT22;9572;52.378;13.404;2023-02-01T12:42:32;6.80;99.90
18880;DHT22;9572;52.378;13.404;2023-02-01T12:45:10;6.90;99.90
18880;DHT22;9572;52.378;13.404;2023-02-01T12:47:41;6.90;99.90
18880;DHT22;9572;52.378;13.404;2023-02-01T12:50:14;6.90;99.90
18880;DHT22;9572;52.378;13.404;2023-02-01T12:52:46;6.80;99.90
18880;DHT22;9572;52.378;13.404;2023-02-01T12:55:20;6.80;99.90
18880;DHT22;9572;52.378;13.404;2023-02-01T12:57:51;6.80;99.90
18880;DHT22;9572;52.378;13.404;2023-02-01T13:00:25;6.80;99.90
18880;DHT22;9572;52.378;13.404;2023-02-01T13:02:59;6.80;99.90
18880;DHT22;9572;52.378;13.404;2023-02-01T13:05:36;6.80;99.90
18880;DHT22;9572;52.378;13.404;2023-02-01T13:08:09;6.80;99.90
18880;DHT22;9572;52.378;13.404;2023-02-01T13:10:42;6.80;99.90
18880;DHT22;9572;52.378;13.404;2023-02-01T13:13:23;6.80;99.90
18880;DHT22;9572;52.378;13.404;2023-02-01T13:15:59;6.70;99.90
18880;DHT22;9572;52.378;13.404;2023-02-01T13:18:35;6.70;99.90
18880;DHT22;9572;52.378;13.404;2023-02-01T13:21:05;6.70;99.90
18880;DHT22;9572;52.378;13.404;2023-02-01T13:23:37;6.70;99.90
18880;DHT22;9572;52.378;13.404;2023-02-01T13:26:16;6.70;99.90
18880;DHT22;9572;52.378;13.404;2023-02-01T13:28:46;6.70;99.90
18880;DHT22;9572;52.378;13.404;2023-02-01T13:31:34;6.60;99.90
18880;DHT22;9572;52.378;13.404;2023-02-01T13:37:36;6.70;99.90
18880;DHT22;9572;52.378;13.404;2023-02-01T13:40:26;6.70;99.90
18880;DHT22;9572;52.378;13.404;2023-02-01T13:43:04;6.70;99.90
18880;DHT22;9572;52.378;13.404;2023-02-01T13:45:34;6.80;99.90
18880;DHT22;9572;52.378;13.404;2023-02-01T13:48:05;6.70;99.90
18880;DHT22;9572;52.378;13.404;2023-02-01T13:50:34;6.80;99.90
18880;DHT22;9572;52.378;13.404;2023-02-01T13:53:11;6.70;99.90
18880;DHT22;9572;52.378;13.404;2023-02-01T13:55:41;6.80;99.90
18880;DHT22;9572;52.378;13.404;2023-02-01T13:58:21;6.70;99.90
18880;DHT22;9572;52.378;13.404;2023-02-01T14:00:49;6.70;99.90
18880;DHT22;9572;52.378;13.404;2023-02-01T14:03:20;6.80;99.90
18880;DHT22;9572;52.378;13.404;2023-02-01T14:06:14;6.80;99.90
18880;DHT22;9572;52.378;13.404;2023-02-01T14:11:35;6.80;99.90
18880;DHT22;9572;52.378;13.404;2023-02-01T14:17:37;6.70;99.90
18880;DHT22;9572;52.378;13.404;2023-02-01T14:23:26;6.70;99.90
18880;DHT22;9572;52.378;13.404;2023-02-01T14:26:10;6.70;99.90
18880;DHT22;9572;52.378;13.404;2023-02-01T14:28:41;6.70;99.90
18880;DHT22;9572;52.378;13.404;2023-02-01T14:31:34;6.70;99.90
18880;DHT22;9572;52.378;13.404;2023-02-01T14:34:15;6.60;99.90
18880;DHT22;9572;52.378;13.404;2023-02-01T14:36:49;6.70;99.90
18880;DHT22;9572;52.378;13.404;2023-02-01T14:39:23;6.70;99.90
18880;DHT22;9572;52.378;13.404;2023-02-01T14:41:54;6.70;99.90
18880;DHT22;9572;52.378;13.404;2023-02-01T14:44:36;6.70;99.90
18880;DHT22;9572;52.378;13.404;2023-02-01T14:47:25;6.70;99.90
18880;DHT22;9572;52.378;13.404;2023-02-01T14:49:59;6.70;99.90
18880;DHT22;9572;52.378;13.404;2023-02-01T14:52:32;6.70;99.90
18880;DHT22;9572;52.378;13.404;2023-02-01T14:55:04;6.70;99.90
18880;DHT22;9572;52.378;13.404;2023-02-01T14:57:34;6.70;99.90
18880;DHT22;9572;52.378;13.404;2023-02-01T15:00:11;6.80;99.90
18880;DHT22;9572;52.378;13.404;2023-02-01T15:02:41;6.80;99.90
18880;DHT22;9572;52.378;13.404;2023-02-01T15:05:27;6.70;99.90
18880;DHT22;9572;52.378;13.404;2023-02-01T15:07:58;6.70;99.90
18880;DHT22;9572;52.378;13.404;2023-02-01T15:10:27;6.70;99.90
18880;DHT22;9572;52.378;13.404;2023-02-01T15:12:56;6.50;99.90
18880;DHT22;9572;52.378;13.404;2023-02-01T15:15:24;6.30;99.90
18880;DHT22;9572;52.378;13.404;2023-02-01T15:17:53;6.10;99.90
18880;DHT22;9572;52.378;13.404;2023-02-01T15:20:23;5.80;99.90
18880;DHT22;9572;52.378;13.404;2023-02-01T15:22:57;5.70;99.90
18880;DHT22;9572;52.378;13.404;2023-02-01T15:25:25;5.60;99.90
18880;DHT22;9572;52.378;13.404;2023-02-01T15:27:52;5.50;99.90
18880;DHT22;9572;52.378;13.404;2023-02-01T15:30:22;5.30;99.90
18880;DHT22;9572;52.378;13.404;2023-02-01T15:32:49;5.20;99.90
18880;DHT22;9572;52.378;13.404;2023-02-01T15:35:39;5.10;99.90
18880;DHT22;9572;52.378;13.404;2023-02-01T15:38:37;5.10;99.90
18880;DHT22;9572;52.378;13.404;2023-02-01T15:41:12;5.00;99.90
18880;DHT22;9572;52.378;13.404;2023-02-01T15:43:42;5.00;99.90
18880;DHT22;9572;52.378;13.404;2023-02-01T15:46:11;4.90;99.90
18880;DHT22;9572;52.378;13.404;2023-02-01T15:48:43;4.90;99.90
18880;DHT22;9572;52.378;13.404;2023-02-01T15:51:17;4.90;99.90
18880;DHT22;9572;52.378;13.404;2023-02-01T15:53:50;4.80;99.90
18880;DHT22;9572;52.378;13.404;2023-02-01T15:56:25;4.70;99.90
18880;DHT22;9572;52.378;13.404;2023-02-01T15:58:57;4.70;99.90
18880;DHT22;9572;52.378;13.404;2023-02-01T16:01:24;4.70;99.90
18880;DHT22;9572;52.378;13.404;2023-02-01T16:04:03;4.70;99.90
18880;DHT22;9572;52.378;13.404;2023-02-01T16:06:32;4.60;99.90
18880;DHT22;9572;52.378;13.404;2023-02-01T16:09:09;4.60;99.90
18880;DHT22;9572;52.378;13.404;2023-02-01T16:11:46;4.60;99.90
18880;DHT22;9572;52.378;13.404;2023-02-01T16:14:13;4.50;99.90
18880;DHT22;9572;52.378;13.404;2023-02-01T16:16:40;4.40;99.90
18880;DHT22;9572;52.378;13.404;2023-02-01T16:19:07;4.40;99.90
18880;DHT22;9572;52.378;13.404;2023-02-01T16:21:35;4.20;99.90
18880;DHT22;9572;52.378;13.404;2023-02-01T16:24:02;4.10;99.90
18880;DHT22;9572;52.378;13.404;2023-02-01T16:26:30;3.80;99.90
18880;DHT22;9572;52.378;13.404;2023-02-01T16:28:57;3.70;99.90
18880;DHT22;9572;52.378;13.404;2023-02-01T16:31:30;3.60;99.90
18880;DHT22;9572;52.378;13.404;2023-02-01T16:33:57;3.30;99.90
18880;DHT22;9572;52.378;13.404;2023-02-01T16:36:25;3.20;99.90
18880;DHT22;9572;52.378;13.404;2023-02-01T16:38:54;3.30;99.90
18880;DHT22;9572;52.378;13.404;2023-02-01T16:41:22;3.30;99.90
18880;DHT22;9572;52.378;13.404;2023-02-01T16:43:50;3.40;99.90